Time;durP1;ratioP1;P1;durP2;ratioP2;P2;SDS_P1;SDS_P2;PMS_P1;PMS_P2;Temp;Humidity;BMP_temperature;BMP_pressure;BME280_temperature;BME280_humidity;BME280_pressure;Samples;Min_cycle;Max_cycle;Signal;HPM_P1;HPM_P2
2023/11/14 00:02:24;;;;;;;19.25;12.82;;;11.50;99.90;;;;;;4996961;28;20031;-70
2023/11/14 00:04:51;;;;;;;17.83;13.07;;;11.50;99.90;;;;;;4996015;28;20433;-69
2023/11/14 00:07:17;;;;;;;20.52;13.57;;;11.50;99.90;;;;;;4997237;28;20034;-71
2023/11/14 00:09:43;;;;;;;19.40;13.40;;;11.50;99.90;;;;;;4995746;28;20521;-70
2023/11/14 00:12:09;;;;;;;25.98;13.57;;;11.50;99.90;;;;;;4996710;28;20542;-70
2023/11/14 00:14:36;;;;;;;22.23;14.48;;;11.50;99.90;;;;;;4997183;28;20104;-70
2023/11/14 00:17:03;;;;;;;17.58;13.52;;;11.50;99.90;;;;;;4996818;28;20031;-70
2023/11/14 00:19:28;;;;;;;19.15;13.18;;;11.50;99.90;;;;;;4996792;28;20038;-70
2023/11/14 00:21:54;;;;;;;20.20;14.18;;;11.50;99.90;;;;;;4996915;28;20034;-69
2023/11/14 00:24:20;;;;;;;19.30;14.23;;;11.50;99.90;;;;;;4996747;28;20034;-70
2023/11/14 00:26:46;;;;;;;21.35;14.82;;;11.50;99.90;;;;;;4996397;28;20121;-70
2023/11/14 00:29:11;;;;;;;23.90;16.55;;;11.50;99.90;;;;;;4996487;28;20042;-70
2023/11/14 00:31:37;;;;;;;22.95;15.48;;;11.50;99.90;;;;;;4996521;28;20057;-70
2023/11/14 00:34:04;;;;;;;19.98;13.25;;;11.50;99.90;;;;;;4996391;28;20081;-69
2023/11/14 00:36:29;;;;;;;17.23;12.60;;;11.50;99.90;;;;;;4996341;28;20430;-70
2023/11/14 00:38:59;;;;;;;16.20;11.88;;;11.50;99.90;;;;;;4996432;28;20038;-70
2023/11/14 00:41:27;;;;;;;18.17;11.65;;;11.50;99.90;;;;;;4996293;28;20435;-69
2023/11/14 00:43:53;;;;;;;20.75;11.60;;;11.50;99.90;;;;;;4996171;28;20483;-70
2023/11/14 00:46:19;;;;;;;16.02;10.70;;;11.50;99.90;;;;;;4979034;28;20038;-70
2023/11/14 00:48:46;;;;;;;16.25;10.15;;;11.50;99.90;;;;;;4996324;28;20447;-70
2023/11/14 00:51:12;;;;;;;16.80;10.93;;;11.50;99.90;;;;;;4996189;28;20491;-70
2023/11/14 00:53:37;;;;;;;14.60;9.98;;;11.40;99.90;;;;;;4996245;28;20058;-70
2023/11/14 00:56:03;;;;;;;16.52;10.25;;;11.40;99.90;;;;;;4996239;28;20045;-70
2023/11/14 00:58:29;;;;;;;19.05;11.93;;;11.40;99.90;;;;;;4996065;28;20034;-70
2023/11/14 01:00:55;;;;;;;20.15;12.35;;;11.40;99.90;;;;;;4996139;28;20042;-70
2023/11/14 01:03:24;;;;;;;20.83;12.00;;;11.40;99.90;;;;;;4997060;28;20097;-69
2023/11/14 01:05:52;;;;;;;16.70;11.43;;;11.40;99.90;;;;;;4997277;28;20117;-70
2023/11/14 01:08:18;;;;;;;21.85;12.35;;;11.40;99.90;;;;;;4996673;28;20038;-69
2023/11/14 01:10:45;;;;;;;17.88;12.45;;;11.30;99.90;;;;;;4996868;28;20027;-70
2023/11/14 01:13:11;;;;;;;23.13;12.57;;;11.30;99.90;;;;;;4996052;28;20093;-69
2023/11/14 01:15:39;;;;;;;17.02;11.85;;;11.30;99.90;;;;;;4996181;28;20023;-70
2023/11/14 01:18:08;;;;;;;18.23;13.07;;;11.30;99.90;;;;;;4994844;28;20126;-69
2023/11/14 01:20:35;;;;;;;16.73;11.85;;;11.20;99.90;;;;;;4996174;28;20167;-70
2023/11/14 01:23:01;;;;;;;20.95;14.13;;;11.20;99.90;;;;;;4996195;28;20089;-70
2023/11/14 01:25:27;;;;;;;20.85;13.30;;;11.20;99.90;;;;;;4996206;28;20046;-70
2023/11/14 01:27:53;;;;;;;19.10;12.20;;;11.20;99.90;;;;;;4995935;28;20070;-69
2023/11/14 01:30:19;;;;;;;19.17;12.85;;;11.20;99.90;;;;;;4995967;28;20110;-69
2023/11/14 01:32:45;;;;;;;15.77;11.93;;;11.20;99.90;;;;;;4994586;28;20125;-70
2023/11/14 01:35:11;;;;;;;18.73;12.05;;;11.20;99.90;;;;;;4994200;28;20071;-71
2023/11/14 01:37:37;;;;;;;22.67;12.75;;;11.10;99.90;;;;;;4995566;28;20034;-70
2023/11/14 01:40:04;;;;;;;18.52;11.38;;;11.10;99.90;;;;;;4995379;28;20037;-70
2023/11/14 01:42:29;;;;;;;15.30;10.77;;;11.10;99.90;;;;;;4995806;28;20066;-70
2023/11/14 01:44:56;;;;;;;21.02;10.80;;;11.10;99.90;;;;;;4995433;28;20066;-70
2023/11/14 01:47:24;;;;;;;12.75;9.68;;;11.10;99.90;;;;;;4995553;28;20046;-71
2023/11/14 01:49:53;;;;;;;15.48;9.70;;;11.00;99.90;;;;;;4995421;28;20034;-70
2023/11/14 01:52:20;;;;;;;16.83;10.45;;;11.00;99.90;;;;;;4995149;28;20046;-70
2023/11/14 01:54:48;;;;;;;15.90;10.30;;;11.00;99.90;;;;;;4995271;28;20077;-70
2023/11/14 01:57:15;;;;;;;15.65;9.45;;;11.00;99.90;;;;;;4995095;28;20034;-70
2023/11/14 01:59:42;;;;;;;17.33;10.05;;;11.00;99.90;;;;;;4991965;28;20043;-70
2023/11/14 02:02:08;;;;;;;15.02;9.90;;;11.00;99.90;;;;;;4992341;28;20431;-70
2023/11/14 02:04:36;;;;;;;14.98;9.80;;;11.00;99.90;;;;;;4975566;28;20035;-70
2023/11/14 02:07:03;;;;;;;13.68;9.85;;;11.00;99.90;;;;;;4994614;28;20446;-70
2023/11/14 02:09:29;;;;;;;14.35;9.88;;;11.00;99.90;;;;;;4993832;28;20418;-70
2023/11/14 02:11:55;;;;;;;14.65;9.73;;;10.90;99.90;;;;;;4994453;28;20046;-70
2023/11/14 02:14:22;;;;;;;14.35;10.20;;;10.90;99.90;;;;;;4994389;28;20368;-69
2023/11/14 02:16:55;;;;;;;15.90;10.68;;;10.90;99.90;;;;;;4993712;28;20368;-70
2023/11/14 02:19:22;;;;;;;13.50;10.07;;;10.90;99.90;;;;;;4994613;28;20069;-71
2023/11/14 02:21:48;;;;;;;14.27;9.55;;;10.90;99.90;;;;;;4994287;28;20049;-70
2023/11/14 02:24:19;;;;;;;16.55;9.90;;;10.80;99.90;;;;;;4994482;28;20034;-70
2023/11/14 02:26:50;;;;;;;14.00;10.15;;;10.80;99.90;;;;;;4993133;28;20030;-70
2023/11/14 02:29:22;;;;;;;15.55;10.95;;;10.80;99.90;;;;;;4994146;28;20038;-70
2023/11/14 02:31:51;;;;;;;16.30;9.73;;;10.80;99.90;;;;;;4994202;28;20483;-70
2023/11/14 02:34:17;;;;;;;15.93;10.70;;;10.80;99.90;;;;;;4994116;28;20046;-70
2023/11/14 02:36:43;;;;;;;15.05;10.70;;;10.80;99.90;;;;;;4993920;28;20030;-70
2023/11/14 02:39:10;;;;;;;15.57;10.55;;;10.80;99.90;;;;;;4994294;28;20045;-69
2023/11/14 02:41:36;;;;;;;18.95;11.30;;;10.70;99.90;;;;;;4994190;28;20034;-70
2023/11/14 02:44:02;;;;;;;13.38;9.40;;;10.70;99.90;;;;;;4993797;28;20034;-70
2023/11/14 02:46:28;;;;;;;19.50;10.20;;;10.70;99.90;;;;;;4995091;28;20550;-70
2023/11/14 02:48:54;;;;;;;14.00;8.75;;;10.70;99.90;;;;;;4994664;28;20065;-70
2023/11/14 02:51:20;;;;;;;12.70;8.57;;;10.70;99.90;;;;;;4995517;28;20034;-69
2023/11/14 02:53:46;;;;;;;15.02;9.32;;;10.80;99.90;;;;;;4994688;28;20057;-70
2023/11/14 02:56:12;;;;;;;16.92;8.85;;;10.80;99.90;;;;;;4994792;28;20035;-70
2023/11/14 02:58:39;;;;;;;18.65;8.73;;;10.70;99.90;;;;;;4976952;28;20065;-70
2023/11/14 03:01:11;;;;;;;13.38;8.13;;;10.70;99.90;;;;;;4976882;28;20113;-69
2023/11/14 03:03:38;;;;;;;;;;;10.80;99.90;;;;;;4994589;28;20077;-69
2023/11/14 03:06:04;;;;;;;17.20;8.95;;;10.80;99.90;;;;;;4994212;28;19944;-70
2023/11/14 03:08:30;;;;;;;16.23;8.10;;;10.80;99.90;;;;;;4994309;28;20031;-70
2023/11/14 03:10:56;;;;;;;18.58;8.52;;;10.80;99.90;;;;;;4994220;28;20042;-69
2023/11/14 03:13:22;;;;;;;14.23;7.25;;;10.80;99.90;;;;;;4992588;28;20050;-70
2023/11/14 03:15:48;;;;;;;15.95;8.15;;;10.80;99.90;;;;;;4994054;28;20372;-70
2023/11/14 03:18:14;;;;;;;13.50;7.60;;;10.80;99.90;;;;;;4993837;28;20042;-71
2023/11/14 03:20:40;;;;;;;12.65;7.60;;;10.80;99.90;;;;;;4994041;28;20376;-70
2023/11/14 03:23:06;;;;;;;12.30;7.50;;;10.80;99.90;;;;;;4993842;28;20395;-70
2023/11/14 03:25:32;;;;;;;11.50;7.13;;;10.80;99.90;;;;;;4993888;28;20508;-70
2023/11/14 03:27:59;;;;;;;13.95;7.63;;;10.80;99.90;;;;;;4993616;28;20113;-70
2023/11/14 03:30:26;;;;;;;11.38;7.53;;;10.80;99.90;;;;;;4993773;28;20081;-71
2023/11/14 03:32:52;;;;;;;12.07;7.65;;;10.80;99.90;;;;;;4993744;28;20549;-70
2023/11/14 03:35:18;;;;;;;12.68;7.65;;;10.80;99.90;;;;;;4993426;28;20126;-70
2023/11/14 03:37:44;;;;;;;9.45;7.03;;;10.80;99.90;;;;;;4993607;28;20117;-70
2023/11/14 03:40:11;;;;;;;10.30;7.30;;;10.80;99.90;;;;;;4993272;28;20499;-70
2023/11/14 03:42:39;;;;;;;14.95;7.30;;;10.80;99.90;;;;;;4993452;28;20065;-70
2023/11/14 03:45:06;;;;;;;13.20;7.22;;;10.80;99.90;;;;;;4993410;28;20418;-69
2023/11/14 03:47:32;;;;;;;13.68;7.60;;;10.80;99.90;;;;;;4993605;28;20141;-70
2023/11/14 03:49:57;;;;;;;11.60;6.97;;;10.80;99.90;;;;;;4993094;28;20113;-69
2023/11/14 03:52:25;;;;;;;10.48;7.50;;;10.80;99.90;;;;;;4993209;28;20034;-70
2023/11/14 03:54:51;;;;;;;11.88;8.07;;;10.80;99.90;;;;;;4993365;28;20491;-69
2023/11/14 03:57:18;;;;;;;11.93;7.82;;;10.80;99.90;;;;;;4993272;28;20110;-70
2023/11/14 03:59:44;;;;;;;11.90;7.47;;;10.80;99.90;;;;;;4991748;28;20038;-70
2023/11/14 04:02:10;;;;;;;10.57;7.28;;;10.80;99.90;;;;;;4993423;28;20038;-70
2023/11/14 04:04:37;;;;;;;14.98;8.02;;;10.80;99.90;;;;;;4992719;28;20510;-70
2023/11/14 04:07:03;;;;;;;13.50;7.85;;;10.80;99.90;;;;;;4993071;28;20490;-70
2023/11/14 04:09:29;;;;;;;12.77;7.63;;;10.80;99.90;;;;;;4992903;28;20057;-70
2023/11/14 04:11:55;;;;;;;10.73;7.20;;;10.80;99.90;;;;;;4992535;28;20066;-70
2023/11/14 04:14:20;;;;;;;11.82;7.07;;;10.80;99.90;;;;;;4993063;28;20050;-70
2023/11/14 04:16:46;;;;;;;14.98;8.27;;;10.80;99.90;;;;;;4991978;28;20035;-70
2023/11/14 04:19:12;;;;;;;12.02;7.35;;;10.80;99.90;;;;;;4991875;28;20068;-70
2023/11/14 04:21:38;;;;;;;12.52;7.95;;;10.80;99.90;;;;;;4993182;28;20061;-70
2023/11/14 04:24:04;;;;;;;11.65;7.63;;;10.90;99.90;;;;;;4993092;28;20041;-70
2023/11/14 04:26:30;;;;;;;10.23;7.00;;;10.90;99.90;;;;;;4993104;28;20122;-70
2023/11/14 04:28:56;;;;;;;11.13;7.38;;;10.90;99.90;;;;;;4993207;28;20066;-70
2023/11/14 04:31:22;;;;;;;15.40;6.82;;;10.90;99.90;;;;;;4988378;28;20038;-70
2023/11/14 04:33:49;;;;;;;13.35;7.65;;;10.90;99.90;;;;;;4974262;28;20053;-69
2023/11/14 04:36:16;;;;;;;14.88;7.25;;;10.90;99.90;;;;;;4974387;28;20045;-70
2023/11/14 04:38:43;;;;;;;11.77;7.43;;;10.90;99.90;;;;;;4973974;28;20081;-69
2023/11/14 04:41:09;;;;;;;13.52;7.40;;;10.90;99.90;;;;;;4977382;28;20042;-69
2023/11/14 04:43:38;;;;;;;12.63;7.47;;;10.90;99.90;;;;;;4977729;28;20085;-69
2023/11/14 04:46:07;;;;;;;13.48;7.47;;;10.90;99.90;;;;;;4976561;28;20516;-69
2023/11/14 04:48:36;;;;;;;11.95;6.88;;;10.90;99.90;;;;;;4977514;28;20061;-69
2023/11/14 04:51:02;;;;;;;9.35;6.88;;;10.90;99.90;;;;;;4977488;28;20033;-68
2023/11/14 04:53:28;;;;;;;12.02;6.97;;;10.90;99.90;;;;;;4977253;28;20121;-69
2023/11/14 04:55:55;;;;;;;12.40;6.90;;;10.90;99.90;;;;;;4977080;28;20068;-70
2023/11/14 04:58:21;;;;;;;10.30;6.53;;;10.90;99.90;;;;;;4977081;28;20155;-70
2023/11/14 05:00:49;;;;;;;15.43;7.20;;;10.90;99.90;;;;;;4976684;28;20471;-70
2023/11/14 05:03:15;;;;;;;18.52;8.27;;;10.90;99.90;;;;;;4977497;28;20085;-70
2023/11/14 05:05:41;;;;;;;14.07;7.65;;;10.90;99.90;;;;;;4978042;28;20035;-70
2023/11/14 05:08:06;;;;;;;12.02;6.72;;;10.90;99.90;;;;;;4976666;28;20480;-70
2023/11/14 05:10:35;;;;;;;12.13;7.43;;;11.00;99.90;;;;;;4976691;28;20038;-70
2023/11/14 05:13:02;;;;;;;11.75;7.40;;;11.00;99.90;;;;;;4989916;28;20432;-70
2023/11/14 05:15:28;;;;;;;11.70;6.90;;;10.90;99.90;;;;;;4996291;28;20026;-70
2023/11/14 05:17:56;;;;;;;13.50;7.88;;;11.00;99.90;;;;;;4996033;28;20093;-70
2023/11/14 05:20:23;;;;;;;9.45;7.03;;;11.00;99.90;;;;;;4995871;28;20033;-70
2023/11/14 05:22:49;;;;;;;13.13;7.10;;;11.00;99.90;;;;;;4994816;28;20502;-70
2023/11/14 05:25:15;;;;;;;12.82;7.18;;;11.00;99.90;;;;;;4995733;28;20102;-69
2023/11/14 05:27:40;;;;;;;10.25;7.03;;;11.00;99.90;;;;;;4995787;28;20121;-69
2023/11/14 05:30:09;;;;;;;13.15;8.25;;;11.00;99.90;;;;;;4995642;28;20066;-70
2023/11/14 05:32:35;;;;;;;10.02;7.53;;;11.00;99.90;;;;;;4994120;28;20053;-69
2023/11/14 05:35:02;;;;;;;15.80;8.48;;;11.00;99.90;;;;;;4978061;28;20034;-70
2023/11/14 05:37:28;;;;;;;15.05;7.60;;;11.00;99.90;;;;;;4995596;28;20077;-71
2023/11/14 05:39:55;;;;;;;12.30;8.05;;;11.00;99.90;;;;;;4995049;28;20062;-70
2023/11/14 05:42:21;;;;;;;14.32;8.50;;;11.00;99.90;;;;;;4995299;28;20038;-70
2023/11/14 05:44:48;;;;;;;15.07;8.48;;;11.00;99.90;;;;;;4977737;28;20399;-70
2023/11/14 05:47:18;;;;;;;13.45;8.10;;;11.00;99.90;;;;;;4995387;28;20045;-70
2023/11/14 05:49:44;;;;;;;15.13;8.45;;;11.00;99.90;;;;;;4995040;28;20656;-70
2023/11/14 05:52:10;;;;;;;12.63;7.95;;;11.10;99.90;;;;;;4993773;28;20041;-70
2023/11/14 05:54:36;;;;;;;13.65;8.30;;;11.10;99.90;;;;;;4994994;28;20037;-70
2023/11/14 05:57:03;;;;;;;15.70;8.35;;;11.10;99.90;;;;;;4994944;28;20482;-70
2023/11/14 05:59:28;;;;;;;11.10;8.32;;;11.10;99.90;;;;;;4994964;28;20403;-70
2023/11/14 06:01:55;;;;;;;14.20;7.88;;;11.10;99.90;;;;;;4994932;28;20026;-70
2023/11/14 06:04:21;;;;;;;13.45;7.47;;;11.10;99.90;;;;;;4994658;28;20047;-70
2023/11/14 06:06:47;;;;;;;12.68;8.00;;;11.10;99.90;;;;;;4995017;28;20490;-70
2023/11/14 06:09:13;;;;;;;15.30;8.20;;;11.10;99.90;;;;;;4993241;28;20372;-70
2023/11/14 06:11:40;;;;;;;15.90;7.65;;;11.10;99.90;;;;;;4994599;28;20037;-70
2023/11/14 06:14:05;;;;;;;17.85;8.18;;;11.00;99.90;;;;;;4995319;28;20054;-68
2023/11/14 06:16:31;;;;;;;13.57;7.40;;;11.10;99.90;;;;;;4995472;28;20038;-70
2023/11/14 06:18:57;;;;;;;20.55;8.30;;;11.00;99.90;;;;;;4995149;28;20034;-69
2023/11/14 06:21:23;;;;;;;16.10;8.10;;;11.10;99.90;;;;;;4995672;28;20030;-70
2023/11/14 06:23:49;;;;;;;13.77;7.35;;;11.10;99.90;;;;;;4995734;28;20035;-69
2023/11/14 06:26:15;;;;;;;14.60;7.97;;;11.10;99.90;;;;;;4996841;28;20070;-69
2023/11/14 06:28:41;;;;;;;13.88;8.50;;;11.10;99.90;;;;;;4995262;28;20062;-70
2023/11/14 06:31:07;;;;;;;11.13;8.23;;;11.10;99.90;;;;;;4995377;28;20042;-70
2023/11/14 06:33:34;;;;;;;12.05;8.63;;;11.10;99.90;;;;;;4994571;28;20471;-70
2023/11/14 06:36:00;;;;;;;15.88;9.55;;;11.10;99.90;;;;;;4994545;28;20041;-69
2023/11/14 06:38:26;;;;;;;13.20;9.63;;;11.10;99.90;;;;;;4994592;28;20038;-69
2023/11/14 06:40:52;;;;;;;12.18;9.45;;;11.10;99.90;;;;;;4994090;28;20054;-69
2023/11/14 06:43:18;;;;;;;16.77;9.10;;;11.10;99.90;;;;;;4994398;28;20072;-70
2023/11/14 06:45:44;;;;;;;15.77;9.15;;;11.10;99.90;;;;;;4994048;28;20470;-70
2023/11/14 06:48:10;;;;;;;17.33;8.50;;;11.10;99.90;;;;;;4994002;28;20042;-70
2023/11/14 06:50:39;;;;;;;14.50;9.10;;;11.10;99.90;;;;;;4994564;28;20034;-70
2023/11/14 06:53:07;;;;;;;12.20;9.73;;;11.10;99.90;;;;;;4994113;28;20077;-70
2023/11/14 06:55:33;;;;;;;15.05;9.63;;;11.10;99.90;;;;;;4994159;28;20373;-70
2023/11/14 06:58:02;;;;;;;14.75;9.73;;;11.10;99.90;;;;;;4994129;28;20074;-70
2023/11/14 07:00:27;;;;;;;17.95;9.00;;;11.10;99.90;;;;;;4993907;28;20364;-69
2023/11/14 07:02:53;;;;;;;15.68;7.88;;;11.10;99.90;;;;;;4992004;28;20091;-69
2023/11/14 07:05:19;;;;;;;20.15;8.27;;;11.10;99.90;;;;;;4991383;28;20041;-71
2023/11/14 07:07:46;;;;;;;17.02;7.70;;;11.10;99.90;;;;;;4991288;28;20406;-70
2023/11/14 07:10:13;;;;;;;18.42;7.55;;;11.20;99.90;;;;;;4993408;28;20447;-70
2023/11/14 07:12:40;;;;;;;15.73;8.68;;;11.20;99.90;;;;;;4993467;28;20048;-69
2023/11/14 07:15:06;;;;;;;17.67;8.18;;;11.20;99.90;;;;;;4993597;28;20038;-70
2023/11/14 07:17:33;;;;;;;18.58;8.20;;;11.20;99.90;;;;;;4993360;28;20048;-70
2023/11/14 07:19:59;;;;;;;14.13;7.90;;;11.20;99.90;;;;;;4993568;28;20407;-70
2023/11/14 07:22:25;;;;;;;14.68;8.38;;;11.20;99.90;;;;;;4992155;28;20034;-69
2023/11/14 07:24:52;;;;;;;14.57;8.77;;;11.20;99.90;;;;;;4989996;28;20094;-69
2023/11/14 07:27:18;;;;;;;16.92;8.85;;;11.20;99.90;;;;;;4990196;28;20042;-68
2023/11/14 07:29:45;;;;;;;15.13;8.55;;;11.20;99.90;;;;;;4992316;28;20038;-68
2023/11/14 07:32:11;;;;;;;15.85;9.48;;;11.30;99.90;;;;;;4975095;28;20034;-68
2023/11/14 07:34:37;;;;;;;17.45;9.52;;;11.20;99.90;;;;;;4974951;28;20089;-69
2023/11/14 07:37:03;;;;;;;21.55;9.60;;;11.30;99.90;;;;;;4973439;28;20102;-69
2023/11/14 07:39:29;;;;;;;22.45;9.10;;;11.30;99.90;;;;;;4973793;28;20023;-68
2023/11/14 07:41:56;;;;;;;22.58;10.32;;;11.30;99.90;;;;;;4973247;28;20034;-69
2023/11/14 07:44:21;;;;;;;20.23;10.13;;;11.30;99.90;;;;;;4973488;28;20081;-68
2023/11/14 07:46:47;;;;;;;15.30;9.65;;;11.30;99.90;;;;;;4973470;28;20039;-69
2023/11/14 07:49:14;;;;;;;17.08;9.63;;;11.30;99.90;;;;;;4973737;28;20031;-69
2023/11/14 07:51:39;;;;;;;23.52;11.13;;;11.30;99.90;;;;;;4972449;28;20078;-69
2023/11/14 07:54:05;;;;;;;19.55;10.20;;;11.30;99.90;;;;;;4973158;28;20424;-69
2023/11/14 07:56:32;;;;;;;16.75;9.98;;;11.40;99.90;;;;;;4974301;28;20034;-73
2023/11/14 07:58:58;;;;;;;20.70;11.25;;;11.30;99.90;;;;;;4956972;28;20422;-71
2023/11/14 08:01:24;;;;;;;19.85;10.50;;;11.30;99.90;;;;;;4974393;28;20107;-72
2023/11/14 08:03:50;;;;;;;19.35;10.95;;;11.40;99.90;;;;;;4974399;28;20410;-71
2023/11/14 08:06:16;;;;;;;21.20;11.77;;;11.40;99.90;;;;;;4974436;28;20410;-72
2023/11/14 08:08:44;;;;;;;28.15;14.82;;;11.40;99.90;;;;;;4974089;28;20045;-71
2023/11/14 08:11:11;;;;;;;28.33;12.88;;;11.40;99.90;;;;;;4974221;28;20062;-71
2023/11/14 08:13:37;;;;;;;26.02;12.38;;;11.40;99.90;;;;;;4991301;28;20057;-71
2023/11/14 08:16:03;;;;;;;23.15;12.15;;;11.40;99.90;;;;;;4979007;28;20038;-71
2023/11/14 08:18:30;;;;;;;25.00;12.93;;;11.40;99.90;;;;;;4997101;28;20054;-71
2023/11/14 08:20:56;;;;;;;26.30;12.55;;;11.50;99.90;;;;;;4997396;28;20102;-71
2023/11/14 08:23:25;;;;;;;23.63;12.98;;;11.50;99.90;;;;;;4997400;28;20125;-71
2023/11/14 08:25:51;;;;;;;24.38;12.18;;;11.50;99.90;;;;;;4997153;28;20045;-71
2023/11/14 08:28:17;;;;;;;25.73;12.25;;;11.50;99.90;;;;;;4996983;28;20121;-71
2023/11/14 08:30:43;;;;;;;22.98;12.10;;;11.40;99.90;;;;;;4996835;28;20109;-71
2023/11/14 08:33:10;;;;;;;23.42;12.43;;;11.50;99.90;;;;;;4996862;28;20438;-72
2023/11/14 08:35:36;;;;;;;18.98;11.32;;;11.50;99.90;;;;;;4996704;28;20031;-71
2023/11/14 08:38:02;;;;;;;25.50;13.98;;;11.50;99.90;;;;;;4996738;28;20050;-71
2023/11/14 08:40:29;;;;;;;25.80;13.27;;;11.50;99.90;;;;;;4979433;28;20395;-73
2023/11/14 08:42:55;;;;;;;21.92;12.25;;;11.50;99.90;;;;;;4996606;28;20042;-72
2023/11/14 08:45:21;;;;;;;22.50;12.23;;;11.60;99.90;;;;;;4996195;28;20045;-72
2023/11/14 08:47:47;;;;;;;25.17;13.40;;;11.60;99.90;;;;;;4996562;28;20033;-72
2023/11/14 08:50:13;;;;;;;20.65;13.52;;;11.60;99.90;;;;;;4996586;28;20473;-72
2023/11/14 08:52:40;;;;;;;30.52;13.65;;;11.60;99.90;;;;;;4996380;28;20129;-72
2023/11/14 08:55:07;;;;;;;25.90;13.15;;;11.60;99.90;;;;;;4996411;28;20042;-72
2023/11/14 08:57:32;;;;;;;29.52;13.35;;;11.60;99.90;;;;;;4996424;28;20089;-72
2023/11/14 08:59:59;;;;;;;22.58;12.63;;;11.60;99.90;;;;;;4996261;28;20442;-72
2023/11/14 09:02:25;;;;;;;18.67;11.52;;;11.60;99.90;;;;;;4995862;28;20041;-72
2023/11/14 09:04:51;;;;;;;26.60;13.15;;;11.60;99.90;;;;;;4996058;28;20374;-72
2023/11/14 09:07:17;;;;;;;30.45;12.02;;;11.60;99.90;;;;;;4995736;28;20043;-72
2023/11/14 09:09:44;;;;;;;29.88;12.77;;;11.60;99.90;;;;;;4996099;28;20505;-73
2023/11/14 09:12:10;;;;;;;21.70;12.02;;;11.70;99.90;;;;;;4995859;28;20133;-71
2023/11/14 09:14:37;;;;;;;25.23;12.45;;;11.60;99.90;;;;;;4995953;28;20084;-73
2023/11/14 09:17:03;;;;;;;24.25;12.40;;;11.70;99.90;;;;;;4995588;28;20034;-73
2023/11/14 09:19:31;;;;;;;29.80;14.93;;;11.70;99.90;;;;;;4994502;28;20057;-72
2023/11/14 09:21:58;;;;;;;24.70;14.32;;;11.70;99.90;;;;;;4994073;28;20048;-73
2023/11/14 09:24:23;;;;;;;28.25;14.35;;;11.70;99.90;;;;;;4994173;28;20406;-73
2023/11/14 09:26:49;;;;;;;24.90;13.25;;;11.70;99.90;;;;;;4993927;28;20093;-73
2023/11/14 09:29:15;;;;;;;27.95;14.95;;;11.70;99.90;;;;;;4994300;28;20042;-72
2023/11/14 09:31:41;;;;;;;32.78;16.40;;;11.70;99.90;;;;;;4993925;28;20078;-72
2023/11/14 09:34:08;;;;;;;43.55;20.23;;;11.70;99.90;;;;;;4992876;28;20050;-72
2023/11/14 09:36:34;;;;;;;36.45;20.10;;;11.70;99.90;;;;;;4993665;28;20504;-72
2023/11/14 09:38:59;;;;;;;39.90;21.25;;;11.70;99.90;;;;;;4994381;28;20078;-72
2023/11/14 09:41:25;;;;;;;37.80;24.10;;;11.80;99.90;;;;;;4994163;28;20081;-73
2023/11/14 09:43:52;;;;;;;42.13;26.20;;;11.80;99.90;;;;;;4994213;28;20034;-72
2023/11/14 09:46:17;;;;;;;44.22;28.35;;;11.80;99.90;;;;;;4994061;28;20046;-72
2023/11/14 09:48:46;;;;;;;43.28;27.90;;;11.80;99.90;;;;;;4994414;28;20042;-72
2023/11/14 09:51:14;;;;;;;51.15;31.75;;;11.80;99.90;;;;;;4995831;28;20041;-73
2023/11/14 09:53:43;;;;;;;41.35;29.45;;;11.80;99.90;;;;;;4995723;28;20070;-71
2023/11/14 09:56:09;;;;;;;47.53;33.65;;;11.80;99.90;;;;;;4995706;28;20467;-72
2023/11/14 09:58:37;;;;;;;48.65;31.60;;;11.90;99.90;;;;;;4995785;28;20414;-72
2023/11/14 10:01:04;;;;;;;55.03;36.67;;;11.90;99.90;;;;;;4995566;28;20035;-72
2023/11/14 10:03:31;;;;;;;56.45;39.03;;;11.80;99.90;;;;;;4995821;28;20559;-72
2023/11/14 10:05:57;;;;;;;62.05;41.92;;;11.90;99.90;;;;;;4995470;28;20034;-72
2023/11/14 10:08:25;;;;;;;54.80;39.15;;;11.90;99.90;;;;;;4995584;28;20120;-72
2023/11/14 10:11:03;;;;;;;53.88;38.22;;;11.90;99.90;;;;;;4995231;28;20106;-72
2023/11/14 10:13:32;;;;;;;56.08;38.58;;;11.90;99.90;;;;;;5054114;23;20057;-72
2023/11/14 10:16:16;;;;;;;59.15;40.05;;;11.90;99.90;;;;;;5054618;28;20029;-72
2023/11/14 10:18:46;;;;;;;57.38;39.85;;;11.90;99.90;;;;;;5054738;28;20136;-72
2023/11/14 10:21:26;;;;;;;61.22;39.50;;;11.90;99.90;;;;;;5054360;28;20041;-73
2023/11/14 10:23:58;;;;;;;71.22;42.58;;;11.90;99.90;;;;;;5054381;28;20025;-72
2023/11/14 10:26:27;;;;;;;65.70;42.17;;;11.90;99.90;;;;;;5053880;28;20088;-73
2023/11/14 10:28:55;;;;;;;67.95;43.10;;;11.90;99.90;;;;;;5053800;28;20079;-72
2023/11/14 10:31:35;;;;;;;64.68;43.65;;;11.90;99.90;;;;;;5053674;28;20498;-72
2023/11/14 10:34:02;;;;;;;71.35;45.00;;;11.90;99.90;;;;;;5053457;28;20045;-73
2023/11/14 10:36:28;;;;;;;67.63;45.15;;;12.00;99.90;;;;;;5053312;28;20037;-72
2023/11/14 10:39:05;;;;;;;67.65;46.03;;;12.00;99.90;;;;;;5053224;28;20069;-72
2023/11/14 10:41:32;;;;;;;71.18;47.20;;;12.00;99.90;;;;;;5053573;28;20056;-73
2023/11/14 10:44:13;;;;;;;75.93;46.58;;;12.00;99.90;;;;;;5052922;28;20099;-72
2023/11/14 10:46:51;;;;;;;74.03;46.47;;;12.00;99.90;;;;;;5053613;28;20104;-73
2023/11/14 10:49:18;;;;;;;72.00;45.78;;;12.00;99.90;;;;;;5053344;28;20599;-72
2023/11/14 10:51:45;;;;;;;80.90;51.03;;;12.00;99.90;;;;;;5053135;28;20036;-73
2023/11/14 10:54:13;;;;;;;74.07;50.78;;;12.00;99.90;;;;;;5052929;28;20131;-73
2023/11/14 10:56:43;;;;;;;76.97;50.13;;;12.00;99.90;;;;;;5053140;28;20029;-72
2023/11/14 10:59:10;;;;;;;75.45;48.80;;;12.10;99.90;;;;;;5053088;28;20116;-73
2023/11/14 11:01:41;;;;;;;82.97;55.03;;;12.10;99.90;;;;;;5052966;28;20504;-72
2023/11/14 11:04:10;;;;;;;95.50;53.85;;;12.10;99.90;;;;;;5052678;28;20107;-72
2023/11/14 11:06:36;;;;;;;83.45;54.40;;;12.10;99.90;;;;;;5052521;28;20115;-72
2023/11/14 11:09:07;;;;;;;90.88;53.95;;;12.10;99.90;;;;;;5051913;28;20025;-70
2023/11/14 11:11:38;;;;;;;82.43;52.00;;;12.10;99.90;;;;;;5051548;28;20029;-70
2023/11/14 11:14:08;;;;;;;81.00;52.08;;;12.10;99.90;;;;;;5052549;28;20389;-70
2023/11/14 11:16:44;;;;;;;79.53;53.80;;;12.10;99.90;;;;;;4987747;28;20488;-72
2023/11/14 11:19:28;;;;;;;72.70;50.75;;;12.10;99.90;;;;;;5031403;28;20033;-70
2023/11/14 11:22:15;;;;;;;75.18;48.10;;;12.20;99.90;;;;;;5032702;28;20481;-72
2023/11/14 11:25:18;;;;;;;77.53;48.30;;;12.10;99.90;;;;;;5015047;28;20064;-72
2023/11/14 11:27:44;;;;;;;;;;;12.10;99.90;;;;;;5032804;28;20033;-72
2023/11/14 11:30:12;;;;;;;71.90;46.38;;;12.10;99.90;;;;;;5032221;28;20004;-73
2023/11/14 11:32:40;;;;;;;77.63;48.45;;;12.10;99.90;;;;;;5032307;28;20481;-72
2023/11/14 11:35:22;;;;;;;74.75;49.40;;;12.20;99.90;;;;;;5032103;28;20034;-72
2023/11/14 11:38:08;;;;;;;87.10;51.35;;;12.20;99.90;;;;;;5031853;28;20036;-71
2023/11/14 11:40:34;;;;;;;78.55;50.15;;;12.20;99.90;;;;;;5031483;28;20030;-71
2023/11/14 11:43:09;;;;;;;79.65;50.40;;;12.20;99.90;;;;;;5032042;28;20060;-72
2023/11/14 11:45:39;;;;;;;72.40;46.20;;;12.20;99.90;;;;;;5032008;28;20038;-70
2023/11/14 11:48:24;;;;;;;72.78;49.35;;;12.20;99.90;;;;;;5014302;28;20065;-71
2023/11/14 11:50:54;;;;;;;73.57;49.05;;;12.20;99.90;;;;;;5035265;28;20026;-72
2023/11/14 11:53:42;;;;;;;76.93;49.67;;;12.20;99.90;;;;;;5036250;28;20069;-72
2023/11/14 11:56:12;;;;;;;70.32;46.53;;;12.20;99.90;;;;;;5036232;28;20060;-73
2023/11/14 11:58:48;;;;;;;80.65;50.20;;;12.20;99.90;;;;;;5018598;28;20033;-72
2023/11/14 12:01:15;;;;;;;77.40;49.60;;;12.20;99.90;;;;;;5036576;28;20099;-73
2023/11/14 12:03:42;;;;;;;74.30;50.88;;;12.20;99.90;;;;;;5036354;28;20081;-72
2023/11/14 12:06:10;;;;;;;89.25;53.83;;;12.30;99.90;;;;;;5035999;28;20115;-72
2023/11/14 12:08:36;;;;;;;82.20;52.42;;;12.30;99.90;;;;;;5036222;28;20418;-72
2023/11/14 12:11:04;;;;;;;81.20;51.28;;;12.20;99.90;;;;;;5036042;28;20362;-73
2023/11/14 12:13:30;;;;;;;77.32;49.95;;;12.30;99.90;;;;;;5036010;28;20386;-73
2023/11/14 12:15:57;;;;;;;81.43;49.67;;;12.30;99.90;;;;;;5036279;28;20033;-72
2023/11/14 12:18:23;;;;;;;69.28;47.85;;;12.30;99.90;;;;;;5036161;28;20091;-72
2023/11/14 12:20:50;;;;;;;74.68;50.03;;;12.30;99.90;;;;;;5035874;28;20029;-73
2023/11/14 12:23:16;;;;;;;77.07;49.58;;;12.30;99.90;;;;;;5035761;28;20497;-73
2023/11/14 12:25:42;;;;;;;69.20;48.25;;;12.30;99.90;;;;;;5036016;28;20034;-72
2023/11/14 12:28:07;;;;;;;84.95;51.97;;;12.30;99.90;;;;;;5035707;28;20041;-72
2023/11/14 12:30:34;;;;;;;73.70;50.40;;;12.30;99.90;;;;;;5035519;28;20116;-72
2023/11/14 12:33:04;;;;;;;73.50;47.83;;;12.30;99.90;;;;;;5017956;28;20053;-73
2023/11/14 12:35:50;;;;;;;73.45;46.60;;;12.30;99.90;;;;;;5036066;28;20034;-73